sensor_id;sensor_type;location;lat;lon;timestamp;temperature;humidity
64718;DHT22;62506;46.070;14.492;2023-06-14T00:00:47;23.70;58.00
64718;DHT22;62506;46.070;14.492;2023-06-14T00:03:14;23.70;58.00
64718;DHT22;62506;46.070;14.492;2023-06-14T00:05:43;23.70;58.00
64718;DHT22;62506;46.070;14.492;2023-06-14T00:08:11;23.60;58.00
64718;DHT22;62506;46.070;14.492;2023-06-14T00:10:37;23.60;58.10
64718;DHT22;62506;46.070;14.492;2023-06-14T00:13:04;23.60;58.10
64718;DHT22;62506;46.070;14.492;2023-06-14T00:15:33;23.60;58.10
64718;DHT22;62506;46.070;14.492;2023-06-14T00:17:59;23.60;58.40
64718;DHT22;62506;46.070;14.492;2023-06-14T00:20:27;23.60;58.20
64718;DHT22;62506;46.070;14.492;2023-06-14T00:22:53;23.60;58.20
64718;DHT22;62506;46.070;14.492;2023-06-14T00:25:21;23.60;58.40
64718;DHT22;62506;46.070;14.492;2023-06-14T00:27:47;23.60;58.30
64718;DHT22;62506;46.070;14.492;2023-06-14T00:30:13;23.60;58.40
64718;DHT22;62506;46.070;14.492;2023-06-14T00:32:38;23.60;58.40
64718;DHT22;62506;46.070;14.492;2023-06-14T00:35:04;23.60;58.40
64718;DHT22;62506;46.070;14.492;2023-06-14T00:37:30;23.60;58.50
64718;DHT22;62506;46.070;14.492;2023-06-14T00:39:55;23.60;58.50
64718;DHT22;62506;46.070;14.492;2023-06-14T00:42:25;23.60;58.50
64718;DHT22;62506;46.070;14.492;2023-06-14T00:44:50;23.60;58.50
64718;DHT22;62506;46.070;14.492;2023-06-14T00:47:16;23.60;58.60
64718;DHT22;62506;46.070;14.492;2023-06-14T00:49:41;23.60;58.60
64718;DHT22;62506;46.070;14.492;2023-06-14T00:52:07;23.60;58.60
64718;DHT22;62506;46.070;14.492;2023-06-14T00:54:33;23.60;58.60
64718;DHT22;62506;46.070;14.492;2023-06-14T00:56:58;23.60;58.60
64718;DHT22;62506;46.070;14.492;2023-06-14T00:59:24;23.60;58.60
64718;DHT22;62506;46.070;14.492;2023-06-14T01:01:49;23.60;58.50
64718;DHT22;62506;46.070;14.492;2023-06-14T01:04:15;23.60;58.60
64718;DHT22;62506;46.070;14.492;2023-06-14T01:06:45;23.60;58.50
64718;DHT22;62506;46.070;14.492;2023-06-14T01:11:47;23.60;58.60
64718;DHT22;62506;46.070;14.492;2023-06-14T01:14:13;23.60;58.70
64718;DHT22;62506;46.070;14.492;2023-06-14T01:16:39;23.60;58.60
64718;DHT22;62506;46.070;14.492;2023-06-14T01:19:05;23.60;58.60
64718;DHT22;62506;46.070;14.492;2023-06-14T01:21:34;23.60;58.60
64718;DHT22;62506;46.070;14.492;2023-06-14T01:24:07;23.70;58.80
64718;DHT22;62506;46.070;14.492;2023-06-14T01:26:34;23.60;58.60
64718;DHT22;62506;46.070;14.492;2023-06-14T01:29:00;23.60;58.70
64718;DHT22;62506;46.070;14.492;2023-06-14T01:31:26;23.60;58.70
64718;DHT22;62506;46.070;14.492;2023-06-14T01:33:52;23.70;58.80
64718;DHT22;62506;46.070;14.492;2023-06-14T01:36:18;23.60;58.80
64718;DHT22;62506;46.070;14.492;2023-06-14T01:38:45;23.60;58.70
64718;DHT22;62506;46.070;14.492;2023-06-14T01:41:11;23.70;58.80
64718;DHT22;62506;46.070;14.492;2023-06-14T01:43:37;23.70;58.70
64718;DHT22;62506;46.070;14.492;2023-06-14T01:46:04;23.70;58.90
64718;DHT22;62506;46.070;14.492;2023-06-14T01:48:30;23.70;58.80
64718;DHT22;62506;46.070;14.492;2023-06-14T01:50:55;23.70;58.80
64718;DHT22;62506;46.070;14.492;2023-06-14T01:53:21;23.70;58.90
64718;DHT22;62506;46.070;14.492;2023-06-14T01:55:47;23.70;58.90
64718;DHT22;62506;46.070;14.492;2023-06-14T01:58:14;23.70;58.90
64718;DHT22;62506;46.070;14.492;2023-06-14T02:00:41;23.70;58.90
64718;DHT22;62506;46.070;14.492;2023-06-14T02:03:08;23.70;59.00
64718;DHT22;62506;46.070;14.492;2023-06-14T02:05:34;23.70;59.00
64718;DHT22;62506;46.070;14.492;2023-06-14T02:08:00;23.70;58.90
64718;DHT22;62506;46.070;14.492;2023-06-14T02:10:25;23.70;59.00
64718;DHT22;62506;46.070;14.492;2023-06-14T02:12:51;23.70;59.00
64718;DHT22;62506;46.070;14.492;2023-06-14T02:15:17;23.70;59.00
64718;DHT22;62506;46.070;14.492;2023-06-14T02:17:43;23.70;59.00
64718;DHT22;62506;46.070;14.492;2023-06-14T02:20:09;23.70;59.00
64718;DHT22;62506;46.070;14.492;2023-06-14T02:22:35;23.70;59.00
64718;DHT22;62506;46.070;14.492;2023-06-14T02:25:00;23.70;59.10
64718;DHT22;62506;46.070;14.492;2023-06-14T02:27:26;23.60;59.00
64718;DHT22;62506;46.070;14.492;2023-06-14T02:29:51;23.60;59.10
64718;DHT22;62506;46.070;14.492;2023-06-14T02:32:17;23.70;59.10
64718;DHT22;62506;46.070;14.492;2023-06-14T02:34:43;23.60;59.10
64718;DHT22;62506;46.070;14.492;2023-06-14T02:37:08;23.60;59.10
64718;DHT22;62506;46.070;14.492;2023-06-14T02:39:34;23.60;59.10
64718;DHT22;62506;46.070;14.492;2023-06-14T02:42:00;23.60;59.20
64718;DHT22;62506;46.070;14.492;2023-06-14T02:44:26;23.60;59.20
64718;DHT22;62506;46.070;14.492;2023-06-14T02:46:55;23.60;59.30
64718;DHT22;62506;46.070;14.492;2023-06-14T02:49:21;23.60;59.30
64718;DHT22;62506;46.070;14.492;2023-06-14T02:51:46;23.60;59.30
64718;DHT22;62506;46.070;14.492;2023-06-14T02:54:12;23.60;59.30
64718;DHT22;62506;46.070;14.492;2023-06-14T02:56:38;23.60;59.30
64718;DHT22;62506;46.070;14.492;2023-06-14T02:59:04;23.60;59.30
64718;DHT22;62506;46.070;14.492;2023-06-14T03:01:30;23.60;59.30
64718;DHT22;62506;46.070;14.492;2023-06-14T03:03:59;23.60;59.50
64718;DHT22;62506;46.070;14.492;2023-06-14T03:06:24;23.60;59.30
64718;DHT22;62506;46.070;14.492;2023-06-14T03:08:50;23.60;59.30
64718;DHT22;62506;46.070;14.492;2023-06-14T03:11:16;23.50;59.40
64718;DHT22;62506;46.070;14.492;2023-06-14T03:13:45;23.60;59.30
64718;DHT22;62506;46.070;14.492;2023-06-14T03:16:12;23.60;59.30
64718;DHT22;62506;46.070;14.492;2023-06-14T03:18:37;23.60;59.30
64718;DHT22;62506;46.070;14.492;2023-06-14T03:21:03;23.60;59.30
64718;DHT22;62506;46.070;14.492;2023-06-14T03:23:29;23.60;59.30
64718;DHT22;62506;46.070;14.492;2023-06-14T03:25:55;23.60;59.30
64718;DHT22;62506;46.070;14.492;2023-06-14T03:28:21;23.60;59.30
64718;DHT22;62506;46.070;14.492;2023-06-14T03:30:48;23.60;59.30
64718;DHT22;62506;46.070;14.492;2023-06-14T03:33:14;23.60;59.30
64718;DHT22;62506;46.070;14.492;2023-06-14T04:09:20;23.60;60.00
64718;DHT22;62506;46.070;14.492;2023-06-14T04:11:46;23.60;59.80
64718;DHT22;62506;46.070;14.492;2023-06-14T04:14:18;23.70;59.80
64718;DHT22;62506;46.070;14.492;2023-06-14T04:16:45;23.60;58.10
64718;DHT22;62506;46.070;14.492;2023-06-14T04:19:10;23.60;58.90
64718;DHT22;62506;46.070;14.492;2023-06-14T04:26:46;23.70;59.50
64718;DHT22;62506;46.070;14.492;2023-06-14T04:29:15;23.80;59.60
64718;DHT22;62506;46.070;14.492;2023-06-14T04:31:42;23.80;60.10
64718;DHT22;62506;46.070;14.492;2023-06-14T04:34:08;23.80;59.60
64718;DHT22;62506;46.070;14.492;2023-06-14T04:36:43;23.80;59.60
64718;DHT22;62506;46.070;14.492;2023-06-14T04:47:14;23.90;59.60
64718;DHT22;62506;46.070;14.492;2023-06-14T04:49:41;23.90;59.60
64718;DHT22;62506;46.070;14.492;2023-06-14T04:52:06;23.90;59.50
64718;DHT22;62506;46.070;14.492;2023-06-14T04:54:33;23.90;59.30
64718;DHT22;62506;46.070;14.492;2023-06-14T04:56:59;23.90;59.60
64718;DHT22;62506;46.070;14.492;2023-06-14T04:59:24;23.90;60.00
64718;DHT22;62506;46.070;14.492;2023-06-14T05:01:50;23.90;59.80
64718;DHT22;62506;46.070;14.492;2023-06-14T05:04:16;23.90;59.80
64718;DHT22;62506;46.070;14.492;2023-06-14T05:06:42;23.90;59.80
64718;DHT22;62506;46.070;14.492;2023-06-14T05:09:13;23.90;59.80
64718;DHT22;62506;46.070;14.492;2023-06-14T05:11:39;23.90;59.80
64718;DHT22;62506;46.070;14.492;2023-06-14T05:14:05;23.90;59.70
64718;DHT22;62506;46.070;14.492;2023-06-14T05:16:31;24.00;59.80
64718;DHT22;62506;46.070;14.492;2023-06-14T05:18:59;24.00;59.70
64718;DHT22;62506;46.070;14.492;2023-06-14T05:21:26;24.00;59.60
64718;DHT22;62506;46.070;14.492;2023-06-14T05:23:52;24.00;59.50
64718;DHT22;62506;46.070;14.492;2023-06-14T05:26:19;24.00;59.50
64718;DHT22;62506;46.070;14.492;2023-06-14T05:28:44;24.00;59.50
64718;DHT22;62506;46.070;14.492;2023-06-14T05:31:10;24.00;59.50
64718;DHT22;62506;46.070;14.492;2023-06-14T05:33:36;24.00;59.50
64718;DHT22;62506;46.070;14.492;2023-06-14T05:36:01;24.00;59.50
64718;DHT22;62506;46.070;14.492;2023-06-14T05:38:27;24.00;59.60
64718;DHT22;62506;46.070;14.492;2023-06-14T05:40:53;24.00;59.60
64718;DHT22;62506;46.070;14.492;2023-06-14T05:43:19;24.00;59.60
64718;DHT22;62506;46.070;14.492;2023-06-14T05:45:44;23.90;59.60
64718;DHT22;62506;46.070;14.492;2023-06-14T05:48:10;23.90;59.70
64718;DHT22;62506;46.070;14.492;2023-06-14T05:50:36;23.90;59.60
64718;DHT22;62506;46.070;14.492;2023-06-14T05:53:01;23.90;59.60
64718;DHT22;62506;46.070;14.492;2023-06-14T05:55:27;23.90;60.30
64718;DHT22;62506;46.070;14.492;2023-06-14T05:57:52;24.00;59.60
64718;DHT22;62506;46.070;14.492;2023-06-14T06:23:36;24.20;58.60
64718;DHT22;62506;46.070;14.492;2023-06-14T06:26:02;24.20;58.00
64718;DHT22;62506;46.070;14.492;2023-06-14T06:28:27;24.30;58.20
64718;DHT22;62506;46.070;14.492;2023-06-14T06:30:53;24.30;58.30
64718;DHT22;62506;46.070;14.492;2023-06-14T06:33:19;24.30;58.20
64718;DHT22;62506;46.070;14.492;2023-06-14T06:35:44;24.40;58.20
64718;DHT22;62506;46.070;14.492;2023-06-14T06:38:10;24.30;58.20
64718;DHT22;62506;46.070;14.492;2023-06-14T06:40:36;24.40;58.30
64718;DHT22;62506;46.070;14.492;2023-06-14T06:43:02;24.40;58.10
64718;DHT22;62506;46.070;14.492;2023-06-14T06:45:28;24.30;58.20
64718;DHT22;62506;46.070;14.492;2023-06-14T06:47:55;24.30;58.40
64718;DHT22;62506;46.070;14.492;2023-06-14T06:50:22;24.30;58.60
64718;DHT22;62506;46.070;14.492;2023-06-14T06:52:50;24.30;58.60
64718;DHT22;62506;46.070;14.492;2023-06-14T06:55:16;24.40;58.60
64718;DHT22;62506;46.070;14.492;2023-06-14T06:57:42;24.40;58.60
64718;DHT22;62506;46.070;14.492;2023-06-14T07:00:08;24.40;58.60
64718;DHT22;62506;46.070;14.492;2023-06-14T07:02:34;24.40;58.40
64718;DHT22;62506;46.070;14.492;2023-06-14T07:05:00;24.50;58.40
64718;DHT22;62506;46.070;14.492;2023-06-14T07:07:25;24.50;58.60
64718;DHT22;62506;46.070;14.492;2023-06-14T07:09:51;24.40;58.70
64718;DHT22;62506;46.070;14.492;2023-06-14T07:12:23;24.40;58.80
64718;DHT22;62506;46.070;14.492;2023-06-14T07:14:49;24.40;57.10
64718;DHT22;62506;46.070;14.492;2023-06-14T07:17:17;24.20;53.70
64718;DHT22;62506;46.070;14.492;2023-06-14T07:19:48;24.10;54.50
64718;DHT22;62506;46.070;14.492;2023-06-14T07:22:14;24.10;55.90
64718;DHT22;62506;46.070;14.492;2023-06-14T07:24:39;24.10;56.80
64718;DHT22;62506;46.070;14.492;2023-06-14T07:27:05;24.20;57.20
64718;DHT22;62506;46.070;14.492;2023-06-14T07:29:31;24.10;57.30
64718;DHT22;62506;46.070;14.492;2023-06-14T07:31:57;24.20;57.50
64718;DHT22;62506;46.070;14.492;2023-06-14T07:34:22;24.20;57.50
64718;DHT22;62506;46.070;14.492;2023-06-14T07:36:48;24.20;57.60
64718;DHT22;62506;46.070;14.492;2023-06-14T07:39:14;24.20;57.60
64718;DHT22;62506;46.070;14.492;2023-06-14T07:41:40;24.10;57.70
64718;DHT22;62506;46.070;14.492;2023-06-14T07:44:06;24.10;57.80
64718;DHT22;62506;46.070;14.492;2023-06-14T07:46:31;24.20;57.90
64718;DHT22;62506;46.070;14.492;2023-06-14T07:48:57;24.10;57.90
64718;DHT22;62506;46.070;14.492;2023-06-14T07:51:22;24.10;57.90
64718;DHT22;62506;46.070;14.492;2023-06-14T07:53:48;24.10;57.90
64718;DHT22;62506;46.070;14.492;2023-06-14T07:56:14;24.10;58.10
64718;DHT22;62506;46.070;14.492;2023-06-14T07:58:40;24.10;58.20
64718;DHT22;62506;46.070;14.492;2023-06-14T08:01:06;24.10;58.20
64718;DHT22;62506;46.070;14.492;2023-06-14T08:03:33;24.10;58.30
64718;DHT22;62506;46.070;14.492;2023-06-14T08:05:59;24.10;58.20
64718;DHT22;62506;46.070;14.492;2023-06-14T08:08:26;24.10;58.30
64718;DHT22;62506;46.070;14.492;2023-06-14T08:10:51;24.10;58.30
64718;DHT22;62506;46.070;14.492;2023-06-14T08:13:17;24.10;58.30
64718;DHT22;62506;46.070;14.492;2023-06-14T08:15:43;24.10;58.30
64718;DHT22;62506;46.070;14.492;2023-06-14T08:18:09;24.10;58.30
64718;DHT22;62506;46.070;14.492;2023-06-14T08:20:34;24.10;58.40
64718;DHT22;62506;46.070;14.492;2023-06-14T08:23:02;24.10;58.40
64718;DHT22;62506;46.070;14.492;2023-06-14T08:25:29;24.10;58.40
64718;DHT22;62506;46.070;14.492;2023-06-14T08:27:55;24.10;58.40
64718;DHT22;62506;46.070;14.492;2023-06-14T08:30:21;24.10;58.40
64718;DHT22;62506;46.070;14.492;2023-06-14T08:32:46;24.10;58.50
64718;DHT22;62506;46.070;14.492;2023-06-14T08:35:12;24.10;58.50
64718;DHT22;62506;46.070;14.492;2023-06-14T08:37:38;24.10;58.50
64718;DHT22;62506;46.070;14.492;2023-06-14T08:40:05;24.10;58.70
64718;DHT22;62506;46.070;14.492;2023-06-14T08:42:32;24.10;58.70
64718;DHT22;62506;46.070;14.492;2023-06-14T08:44:58;24.00;58.60
64718;DHT22;62506;46.070;14.492;2023-06-14T08:47:25;24.10;58.70
64718;DHT22;62506;46.070;14.492;2023-06-14T08:49:51;24.00;58.70
64718;DHT22;62506;46.070;14.492;2023-06-14T08:52:20;24.10;58.70
64718;DHT22;62506;46.070;14.492;2023-06-14T08:54:46;24.10;58.70
64718;DHT22;62506;46.070;14.492;2023-06-14T08:57:14;24.00;58.60
64718;DHT22;62506;46.070;14.492;2023-06-14T08:59:46;24.10;58.70
64718;DHT22;62506;46.070;14.492;2023-06-14T09:02:30;24.00;58.70
64718;DHT22;62506;46.070;14.492;2023-06-14T09:05:00;24.00;58.70
64718;DHT22;62506;46.070;14.492;2023-06-14T09:07:26;24.00;58.70
64718;DHT22;62506;46.070;14.492;2023-06-14T09:10:05;24.00;58.70
64718;DHT22;62506;46.070;14.492;2023-06-14T09:12:31;24.00;58.70
64718;DHT22;62506;46.070;14.492;2023-06-14T09:14:56;24.00;58.70
64718;DHT22;62506;46.070;14.492;2023-06-14T09:17:22;24.00;58.70
64718;DHT22;62506;46.070;14.492;2023-06-14T09:19:48;24.00;58.70
64718;DHT22;62506;46.070;14.492;2023-06-14T09:22:14;24.00;58.70
64718;DHT22;62506;46.070;14.492;2023-06-14T09:24:41;24.00;58.70
64718;DHT22;62506;46.070;14.492;2023-06-14T09:27:07;24.00;59.40
64718;DHT22;62506;46.070;14.492;2023-06-14T09:29:33;24.00;58.70
64718;DHT22;62506;46.070;14.492;2023-06-14T09:31:59;24.00;58.70
64718;DHT22;62506;46.070;14.492;2023-06-14T09:34:24;24.00;58.80
64718;DHT22;62506;46.070;14.492;2023-06-14T09:36:50;24.00;58.90
64718;DHT22;62506;46.070;14.492;2023-06-14T09:39:17;24.00;59.00
64718;DHT22;62506;46.070;14.492;2023-06-14T09:41:44;24.00;59.00
64718;DHT22;62506;46.070;14.492;2023-06-14T09:44:10;24.00;59.00
64718;DHT22;62506;46.070;14.492;2023-06-14T09:46:36;24.00;59.00
64718;DHT22;62506;46.070;14.492;2023-06-14T09:49:05;24.00;59.20
64718;DHT22;62506;46.070;14.492;2023-06-14T09:51:31;24.00;59.00
64718;DHT22;62506;46.070;14.492;2023-06-14T09:54:00;23.90;59.00
64718;DHT22;62506;46.070;14.492;2023-06-14T09:56:27;24.00;59.10
64718;DHT22;62506;46.070;14.492;2023-06-14T09:58:58;24.00;59.10
64718;DHT22;62506;46.070;14.492;2023-06-14T10:01:24;23.90;59.00
64718;DHT22;62506;46.070;14.492;2023-06-14T10:04:02;23.90;59.10
64718;DHT22;62506;46.070;14.492;2023-06-14T10:06:29;23.90;59.20
64718;DHT22;62506;46.070;14.492;2023-06-14T10:08:56;24.00;59.20
64718;DHT22;62506;46.070;14.492;2023-06-14T10:11:23;23.90;59.10
64718;DHT22;62506;46.070;14.492;2023-06-14T10:13:48;24.00;59.00
64718;DHT22;62506;46.070;14.492;2023-06-14T10:16:17;24.00;59.00
64718;DHT22;62506;46.070;14.492;2023-06-14T10:23:39;24.00;59.10
64718;DHT22;62506;46.070;14.492;2023-06-14T10:26:06;24.00;59.00
64718;DHT22;62506;46.070;14.492;2023-06-14T10:28:32;24.00;59.00
64718;DHT22;62506;46.070;14.492;2023-06-14T10:31:01;24.00;59.00
64718;DHT22;62506;46.070;14.492;2023-06-14T10:36:23;24.00;59.00
64718;DHT22;62506;46.070;14.492;2023-06-14T10:41:26;24.00;54.00
64718;DHT22;62506;46.070;14.492;2023-06-14T10:44:02;23.90;52.50
64718;DHT22;62506;46.070;14.492;2023-06-14T10:46:35;23.90;51.60
64718;DHT22;62506;46.070;14.492;2023-06-14T10:49:01;23.90;52.40
64718;DHT22;62506;46.070;14.492;2023-06-14T10:51:29;23.90;52.80
64718;DHT22;62506;46.070;14.492;2023-06-14T10:53:55;23.90;53.30
64718;DHT22;62506;46.070;14.492;2023-06-14T10:56:28;23.90;53.80
64718;DHT22;62506;46.070;14.492;2023-06-14T10:58:54;23.90;54.40
64718;DHT22;62506;46.070;14.492;2023-06-14T11:04:13;23.90;55.40
64718;DHT22;62506;46.070;14.492;2023-06-14T11:11:57;23.90;55.90
64718;DHT22;62506;46.070;14.492;2023-06-14T11:14:23;23.90;56.00
64718;DHT22;62506;46.070;14.492;2023-06-14T11:16:49;24.00;56.10
64718;DHT22;62506;46.070;14.492;2023-06-14T11:19:15;23.90;56.10
64718;DHT22;62506;46.070;14.492;2023-06-14T11:21:42;23.90;56.20
64718;DHT22;62506;46.070;14.492;2023-06-14T11:24:11;24.00;56.30
64718;DHT22;62506;46.070;14.492;2023-06-14T11:26:37;24.00;56.20
64718;DHT22;62506;46.070;14.492;2023-06-14T11:29:03;23.90;52.90
64718;DHT22;62506;46.070;14.492;2023-06-14T11:31:28;24.00;51.20
64718;DHT22;62506;46.070;14.492;2023-06-14T11:33:57;23.90;50.40
64718;DHT22;62506;46.070;14.492;2023-06-14T11:36:25;23.90;49.60
64718;DHT22;62506;46.070;14.492;2023-06-14T11:38:57;24.00;49.60
64718;DHT22;62506;46.070;14.492;2023-06-14T11:41:24;23.90;49.70
64718;DHT22;62506;46.070;14.492;2023-06-14T11:43:52;23.90;49.80
64718;DHT22;62506;46.070;14.492;2023-06-14T11:46:17;23.80;50.00
64718;DHT22;62506;46.070;14.492;2023-06-14T11:48:47;23.80;49.50
64718;DHT22;62506;46.070;14.492;2023-06-14T11:51:12;23.80;49.60
64718;DHT22;62506;46.070;14.492;2023-06-14T11:53:38;23.80;49.60
64718;DHT22;62506;46.070;14.492;2023-06-14T11:56:04;23.70;49.50
64718;DHT22;62506;46.070;14.492;2023-06-14T11:58:29;23.70;49.60
64718;DHT22;62506;46.070;14.492;2023-06-14T12:00:55;23.80;49.60
64718;DHT22;62506;46.070;14.492;2023-06-14T12:03:24;23.70;49.60
64718;DHT22;62506;46.070;14.492;2023-06-14T12:06:06;23.80;50.10
64718;DHT22;62506;46.070;14.492;2023-06-14T12:08:33;23.70;49.80
64718;DHT22;62506;46.070;14.492;2023-06-14T12:11:04;23.70;50.10
64718;DHT22;62506;46.070;14.492;2023-06-14T12:13:29;23.80;49.80
64718;DHT22;62506;46.070;14.492;2023-06-14T12:15:56;23.70;50.00
64718;DHT22;62506;46.070;14.492;2023-06-14T12:18:31;23.70;50.10
64718;DHT22;62506;46.070;14.492;2023-06-14T12:20:58;23.70;50.70
64718;DHT22;62506;46.070;14.492;2023-06-14T12:23:38;23.70;50.90
64718;DHT22;62506;46.070;14.492;2023-06-14T12:26:03;23.70;51.00
64718;DHT22;62506;46.070;14.492;2023-06-14T12:28:31;23.80;50.60
64718;DHT22;62506;46.070;14.492;2023-06-14T12:30:56;23.80;50.40
64718;DHT22;62506;46.070;14.492;2023-06-14T12:33:24;23.80;49.90
64718;DHT22;62506;46.070;14.492;2023-06-14T12:35:50;23.90;49.30
64718;DHT22;62506;46.070;14.492;2023-06-14T12:38:15;23.90;49.10
64718;DHT22;62506;46.070;14.492;2023-06-14T12:40:41;23.90;48.80
64718;DHT22;62506;46.070;14.492;2023-06-14T12:43:07;23.90;48.80
64718;DHT22;62506;46.070;14.492;2023-06-14T12:45:33;23.90;48.80
64718;DHT22;62506;46.070;14.492;2023-06-14T12:47:58;23.90;48.30
64718;DHT22;62506;46.070;14.492;2023-06-14T12:50:24;23.90;47.80
64718;DHT22;62506;46.070;14.492;2023-06-14T12:52:49;23.90;47.80
64718;DHT22;62506;46.070;14.492;2023-06-14T12:55:15;23.90;48.50
64718;DHT22;62506;46.070;14.492;2023-06-14T12:57:41;23.90;48.80
64718;DHT22;62506;46.070;14.492;2023-06-14T13:00:06;23.90;49.40
64718;DHT22;62506;46.070;14.492;2023-06-14T13:02:32;24.00;49.20
64718;DHT22;62506;46.070;14.492;2023-06-14T13:04:58;24.00;49.20
64718;DHT22;62506;46.070;14.492;2023-06-14T13:07:24;23.90;49.20
64718;DHT22;62506;46.070;14.492;2023-06-14T13:09:50;24.00;49.10
64718;DHT22;62506;46.070;14.492;2023-06-14T13:12:15;24.00;49.40
64718;DHT22;62506;46.070;14.492;2023-06-14T13:14:41;23.90;50.20
64718;DHT22;62506;46.070;14.492;2023-06-14T13:17:08;24.00;49.30
64718;DHT22;62506;46.070;14.492;2023-06-14T13:19:34;24.00;48.30
64718;DHT22;62506;46.070;14.492;2023-06-14T13:22:00;23.90;48.30
64718;DHT22;62506;46.070;14.492;2023-06-14T13:24:25;23.90;47.90
64718;DHT22;62506;46.070;14.492;2023-06-14T13:26:51;23.90;48.20
64718;DHT22;62506;46.070;14.492;2023-06-14T13:29:16;23.90;48.30
64718;DHT22;62506;46.070;14.492;2023-06-14T13:31:42;23.90;48.50
64718;DHT22;62506;46.070;14.492;2023-06-14T13:34:07;23.90;48.70
64718;DHT22;62506;46.070;14.492;2023-06-14T13:36:33;23.90;48.80
64718;DHT22;62506;46.070;14.492;2023-06-14T13:38:59;23.90;48.40
64718;DHT22;62506;46.070;14.492;2023-06-14T13:41:25;23.90;48.30
64718;DHT22;62506;46.070;14.492;2023-06-14T13:43:56;23.90;48.20
64718;DHT22;62506;46.070;14.492;2023-06-14T13:46:22;23.90;48.40
64718;DHT22;62506;46.070;14.492;2023-06-14T13:48:47;23.90;49.20
64718;DHT22;62506;46.070;14.492;2023-06-14T13:51:13;23.90;49.50
64718;DHT22;62506;46.070;14.492;2023-06-14T13:53:38;23.90;49.80
64718;DHT22;62506;46.070;14.492;2023-06-14T13:56:04;23.90;50.10
64718;DHT22;62506;46.070;14.492;2023-06-14T13:58:30;23.90;50.60
64718;DHT22;62506;46.070;14.492;2023-06-14T14:00:55;23.90;51.00
64718;DHT22;62506;46.070;14.492;2023-06-14T14:03:21;23.90;51.20
64718;DHT22;62506;46.070;14.492;2023-06-14T14:05:46;23.90;51.50
64718;DHT22;62506;46.070;14.492;2023-06-14T14:08:12;23.90;51.90
64718;DHT22;62506;46.070;14.492;2023-06-14T14:10:38;23.90;52.20
64718;DHT22;62506;46.070;14.492;2023-06-14T14:13:03;23.90;52.20
64718;DHT22;62506;46.070;14.492;2023-06-14T14:15:29;23.90;52.40
64718;DHT22;62506;46.070;14.492;2023-06-14T14:17:55;23.90;52.20
64718;DHT22;62506;46.070;14.492;2023-06-14T14:20:22;23.90;51.50
64718;DHT22;62506;46.070;14.492;2023-06-14T14:22:48;23.90;50.20
64718;DHT22;62506;46.070;14.492;2023-06-14T14:25:13;23.80;49.40
64718;DHT22;62506;46.070;14.492;2023-06-14T14:27:39;23.90;49.40
64718;DHT22;62506;46.070;14.492;2023-06-14T14:30:05;23.80;49.00
64718;DHT22;62506;46.070;14.492;2023-06-14T14:32:31;23.80;49.60
64718;DHT22;62506;46.070;14.492;2023-06-14T14:34:56;23.80;49.00
64718;DHT22;62506;46.070;14.492;2023-06-14T14:37:22;23.90;49.60
64718;DHT22;62506;46.070;14.492;2023-06-14T14:39:47;23.90;49.90
64718;DHT22;62506;46.070;14.492;2023-06-14T14:42:13;23.90;49.50
64718;DHT22;62506;46.070;14.492;2023-06-14T14:44:38;23.90;49.60
64718;DHT22;62506;46.070;14.492;2023-06-14T14:47:04;23.90;50.00
64718;DHT22;62506;46.070;14.492;2023-06-14T14:49:30;23.90;50.30
64718;DHT22;62506;46.070;14.492;2023-06-14T14:51:56;23.90;50.60
64718;DHT22;62506;46.070;14.492;2023-06-14T14:54:21;23.90;51.00
64718;DHT22;62506;46.070;14.492;2023-06-14T14:56:47;23.80;51.20
64718;DHT22;62506;46.070;14.492;2023-06-14T14:59:12;23.80;51.50
64718;DHT22;62506;46.070;14.492;2023-06-14T15:01:38;23.80;51.60
64718;DHT22;62506;46.070;14.492;2023-06-14T15:04:03;23.80;51.80
64718;DHT22;62506;46.070;14.492;2023-06-14T15:06:29;23.80;51.90
64718;DHT22;62506;46.070;14.492;2023-06-14T15:08:55;23.80;52.00
64718;DHT22;62506;46.070;14.492;2023-06-14T15:11:21;23.80;52.10
64718;DHT22;62506;46.070;14.492;2023-06-14T15:13:47;23.80;52.10
64718;DHT22;62506;46.070;14.492;2023-06-14T15:16:12;23.90;52.20
64718;DHT22;62506;46.070;14.492;2023-06-14T15:18:38;23.80;52.20
64718;DHT22;62506;46.070;14.492;2023-06-14T15:21:03;23.90;52.30
64718;DHT22;62506;46.070;14.492;2023-06-14T15:23:29;23.90;51.80
64718;DHT22;62506;46.070;14.492;2023-06-14T15:25:54;23.90;50.30
64718;DHT22;62506;46.070;14.492;2023-06-14T15:28:20;23.90;49.30
64718;DHT22;62506;46.070;14.492;2023-06-14T15:30:46;24.00;48.90
64718;DHT22;62506;46.070;14.492;2023-06-14T15:33:12;23.90;48.40
64718;DHT22;62506;46.070;14.492;2023-06-14T15:35:37;24.00;48.20
64718;DHT22;62506;46.070;14.492;2023-06-14T15:38:03;24.00;48.00
64718;DHT22;62506;46.070;14.492;2023-06-14T15:40:28;24.00;48.70
64718;DHT22;62506;46.070;14.492;2023-06-14T15:42:54;24.00;47.70
64718;DHT22;62506;46.070;14.492;2023-06-14T15:45:20;24.00;47.40
64718;DHT22;62506;46.070;14.492;2023-06-14T15:47:45;24.00;47.20
64718;DHT22;62506;46.070;14.492;2023-06-14T15:50:12;24.10;47.00
64718;DHT22;62506;46.070;14.492;2023-06-14T15:52:37;24.00;47.10
64718;DHT22;62506;46.070;14.492;2023-06-14T15:55:03;24.10;47.20
64718;DHT22;62506;46.070;14.492;2023-06-14T15:57:29;24.10;46.60
64718;DHT22;62506;46.070;14.492;2023-06-14T15:59:55;24.10;46.70
64718;DHT22;62506;46.070;14.492;2023-06-14T16:02:20;24.10;46.70
64718;DHT22;62506;46.070;14.492;2023-06-14T16:04:45;24.10;46.50
64718;DHT22;62506;46.070;14.492;2023-06-14T16:07:11;24.00;46.40
64718;DHT22;62506;46.070;14.492;2023-06-14T16:09:38;24.10;46.60
64718;DHT22;62506;46.070;14.492;2023-06-14T16:12:04;24.10;46.60
64718;DHT22;62506;46.070;14.492;2023-06-14T16:14:30;24.10;46.60
64718;DHT22;62506;46.070;14.492;2023-06-14T16:16:56;24.10;46.50
64718;DHT22;62506;46.070;14.492;2023-06-14T16:19:21;24.10;46.40
64718;DHT22;62506;46.070;14.492;2023-06-14T16:21:47;24.10;46.40
64718;DHT22;62506;46.070;14.492;2023-06-14T16:24:12;24.10;46.30
64718;DHT22;62506;46.070;14.492;2023-06-14T16:26:39;24.10;46.10
64718;DHT22;62506;46.070;14.492;2023-06-14T16:29:06;24.10;46.10
64718;DHT22;62506;46.070;14.492;2023-06-14T16:31:31;24.10;46.60
64718;DHT22;62506;46.070;14.492;2023-06-14T16:33:57;24.10;46.40
64718;DHT22;62506;46.070;14.492;2023-06-14T16:36:23;24.10;46.80
64718;DHT22;62506;46.070;14.492;2023-06-14T16:38:48;24.10;46.60
64718;DHT22;62506;46.070;14.492;2023-06-14T16:41:14;24.10;46.60